Time;durP1;ratioP1;P1;durP2;ratioP2;P2;SDS_P1;SDS_P2;PMS_P1;PMS_P2;Temp;Humidity;BMP_temperature;BMP_pressure;BME280_temperature;BME280_humidity;BME280_pressure;Samples;Min_cycle;Max_cycle;Signal;HPM_P1;HPM_P2
2023/09/07 00:01:44;;;;;;;6.80;4.30;;;;;;;28.47;33.48;101459.46;103660;1289;60600;-77
2023/09/07 00:04:10;;;;;;;7.10;4.60;;;;;;;28.46;33.64;101460.02;103718;1295;61836;-77
2023/09/07 00:06:36;;;;;;;8.40;4.40;;;;;;;28.46;33.44;101459.34;103484;1294;60500;-77
2023/09/07 00:09:05;;;;;;;7.70;4.80;;;;;;;28.46;33.64;101457.73;103547;1289;60585;-77
2023/09/07 00:11:31;;;;;;;6.70;4.10;;;;;;;28.45;33.55;101459.56;103802;1290;60655;-77
2023/09/07 00:13:59;;;;;;;6.90;4.30;;;;;;;28.45;33.44;101464.34;103597;1295;60482;-77
2023/09/07 00:16:25;;;;;;;6.90;4.20;;;;;;;28.45;33.70;101468.83;103492;1289;60549;-77
2023/09/07 00:18:50;;;;;;;7.10;4.20;;;;;;;28.44;33.73;101462.91;103482;1290;60564;-77
2023/09/07 00:21:16;;;;;;;7.50;4.00;;;;;;;28.45;33.52;101464.14;103736;1291;61850;-77
2023/09/07 00:23:42;;;;;;;6.20;4.20;;;;;;;28.44;33.82;101460.96;103718;1289;60562;-77
2023/09/07 00:26:08;;;;;;;6.70;4.00;;;;;;;28.44;33.62;101455.85;103571;1295;61749;-77
2023/09/07 00:28:34;;;;;;;6.60;4.40;;;;;;;28.44;33.58;101455.30;103540;1294;60533;-77
2023/09/07 00:30:59;;;;;;;8.10;4.40;;;;;;;28.45;33.63;101457.44;103697;1296;60577;-77
2023/09/07 00:33:25;;;;;;;6.20;4.10;;;;;;;28.45;33.55;101455.23;103523;1290;60587;-77
2023/09/07 00:35:51;;;;;;;6.90;4.20;;;;;;;28.44;33.77;101452.25;103757;1289;60492;-77
2023/09/07 00:38:26;;;;;;;6.90;4.10;;;;;;;28.44;33.63;101452.61;103629;1290;60521;-77
2023/09/07 00:40:51;;;;;;;6.50;4.10;;;;;;;28.43;33.68;101453.08;103771;1292;60549;-77
2023/09/07 00:43:18;;;;;;;6.70;4.20;;;;;;;28.44;33.55;101457.19;103706;1289;60585;-77
2023/09/07 00:45:43;;;;;;;7.10;4.30;;;;;;;28.43;33.71;101454.13;103722;1293;60574;-77
2023/09/07 00:48:09;;;;;;;7.10;4.30;;;;;;;28.43;33.67;101456.68;103616;1287;61248;-77
2023/09/07 00:50:35;;;;;;;6.30;3.80;;;;;;;28.42;33.80;101453.10;103465;1289;61058;-78
2023/09/07 00:53:02;;;;;;;6.70;4.10;;;;;;;28.43;33.64;101452.91;103802;1292;60552;-77
2023/09/07 00:55:32;;;;;;;6.60;3.90;;;;;;;28.43;33.59;101454.17;103629;1289;60514;-77
2023/09/07 00:57:59;;;;;;;6.50;4.10;;;;;;;28.43;33.93;101454.19;103726;1289;72269;-77
2023/09/07 01:00:25;;;;;;;6.70;3.90;;;;;;;28.42;33.60;101453.14;103743;1292;60421;-77
2023/09/07 01:02:50;;;;;;;5.80;3.80;;;;;;;28.42;33.76;101451.70;103590;1289;61279;-77
2023/09/07 01:05:16;;;;;;;6.60;4.20;;;;;;;28.42;33.72;101449.20;103858;1291;60485;-77
2023/09/07 01:07:47;;;;;;;5.60;4.00;;;;;;;28.42;33.56;101453.37;103645;1289;61091;-77
2023/09/07 01:10:13;;;;;;;7.40;4.60;;;;;;;28.42;33.58;101456.08;103581;1289;65151;-77
2023/09/07 01:12:40;;;;;;;6.40;3.80;;;;;;;28.41;33.85;101461.16;103565;1289;60523;-77
2023/09/07 01:15:06;;;;;;;6.00;3.90;;;;;;;28.41;33.69;101464.42;103673;1295;60581;-77
2023/09/07 01:17:33;;;;;;;5.60;4.00;;;;;;;28.42;33.71;101463.51;103814;1289;60497;-77
2023/09/07 01:20:05;;;;;;;6.00;4.10;;;;;;;28.41;33.84;101459.91;103828;1291;65068;-77
2023/09/07 01:22:31;;;;;;;6.50;4.00;;;;;;;28.41;33.81;101460.28;103692;1288;60572;-77
2023/09/07 01:24:56;;;;;;;6.10;3.70;;;;;;;28.41;33.90;101459.90;103798;1292;60494;-77
2023/09/07 01:27:22;;;;;;;6.20;3.90;;;;;;;28.41;33.81;101459.40;103513;1290;60572;-77
2023/09/07 01:29:48;;;;;;;6.30;3.80;;;;;;;28.41;33.84;101456.52;103398;1289;60419;-78
2023/09/07 01:32:14;;;;;;;6.40;3.80;;;;;;;28.41;33.92;101456.72;103690;1288;60602;-78
2023/09/07 01:34:40;;;;;;;5.50;3.60;;;;;;;28.41;33.68;101455.60;103658;1289;60463;-77
2023/09/07 01:37:05;;;;;;;6.00;3.80;;;;;;;28.41;33.93;101449.64;103512;1295;60653;-77
2023/09/07 01:39:31;;;;;;;5.30;3.80;;;;;;;28.41;33.82;101449.85;103533;1294;60584;-77
2023/09/07 01:41:57;;;;;;;6.40;4.40;;;;;;;28.41;33.69;101450.02;103609;1293;61114;-77
2023/09/07 01:44:22;;;;;;;6.50;3.90;;;;;;;28.40;33.80;101449.70;103609;1289;60681;-77
2023/09/07 01:46:48;;;;;;;6.90;4.20;;;;;;;28.40;33.81;101452.63;103616;1289;60478;-77
2023/09/07 01:49:15;;;;;;;6.60;3.90;;;;;;;28.40;33.94;101453.92;103489;1289;60585;-77
2023/09/07 01:51:40;;;;;;;6.40;3.90;;;;;;;28.40;33.90;101456.25;103582;1294;60456;-77
2023/09/07 01:54:06;;;;;;;5.80;3.70;;;;;;;28.40;33.87;101459.71;103664;1289;60571;-77
2023/09/07 01:56:31;;;;;;;6.30;3.80;;;;;;;28.40;34.03;101459.69;103477;1294;60561;-77
2023/09/07 01:58:58;;;;;;;5.80;3.80;;;;;;;28.39;34.12;101461.95;103630;1291;60538;-78
2023/09/07 02:01:25;;;;;;;5.80;3.80;;;;;;;28.39;33.91;101463.92;103632;1289;60524;-78
2023/09/07 02:03:51;;;;;;;6.10;4.00;;;;;;;28.38;33.93;101462.54;103685;1289;60584;-77
2023/09/07 02:06:17;;;;;;;6.20;3.70;;;;;;;28.39;33.85;101467.72;103502;1289;60463;-77
2023/09/07 02:08:42;;;;;;;7.70;4.20;;;;;;;28.39;34.04;101462.85;103466;1294;60585;-77
2023/09/07 02:11:10;;;;;;;6.40;3.80;;;;;;;28.39;34.07;101461.97;103416;1294;61313;-77
2023/09/07 02:13:35;;;;;;;5.60;3.80;;;;;;;28.39;33.97;101461.60;103555;1290;60636;-77
2023/09/07 02:16:05;;;;;;;6.10;3.60;;;;;;;28.39;34.00;101459.06;103709;1294;60590;-77
2023/09/07 02:18:33;;;;;;;5.70;3.60;;;;;;;28.39;33.85;101456.73;103474;1294;60383;-77
2023/09/07 02:21:05;;;;;;;5.80;3.90;;;;;;;28.39;33.87;101454.94;103556;1289;64018;-77
2023/09/07 02:23:31;;;;;;;5.80;4.00;;;;;;;28.38;33.81;101453.70;103522;1289;64864;-77
2023/09/07 02:25:58;;;;;;;5.80;3.90;;;;;;;28.37;33.95;101455.57;103463;1289;60652;-77
2023/09/07 02:28:24;;;;;;;6.10;3.80;;;;;;;28.38;33.86;101459.36;103561;1289;60585;-77
2023/09/07 02:30:51;;;;;;;6.30;4.10;;;;;;;28.38;33.93;101459.71;103445;1289;60553;-77
2023/09/07 02:33:17;;;;;;;6.50;3.70;;;;;;;28.37;33.95;101456.47;103501;1295;60518;-77
2023/09/07 02:35:42;;;;;;;5.50;3.60;;;;;;;28.38;34.18;101458.61;103644;1289;60616;-77
2023/09/07 02:38:08;;;;;;;6.70;4.00;;;;;;;28.37;34.03;101456.30;103629;1290;60680;-77
2023/09/07 02:40:44;;;;;;;6.90;4.10;;;;;;;28.37;34.12;101455.23;103614;1293;60494;-77
2023/09/07 02:43:12;;;;;;;5.80;3.90;;;;;;;28.36;34.11;101458.57;103600;1289;64985;-77
2023/09/07 02:45:38;;;;;;;5.80;3.80;;;;;;;28.36;34.18;101459.65;103623;1289;60546;-77
2023/09/07 02:48:04;;;;;;;5.70;3.70;;;;;;;28.37;34.09;101461.61;103382;1289;60649;-77
2023/09/07 02:50:32;;;;;;;6.10;3.50;;;;;;;28.37;34.04;101465.77;103525;1295;60705;-77
2023/09/07 02:52:59;;;;;;;6.00;3.70;;;;;;;28.37;34.26;101467.80;103463;1289;63910;-77
2023/09/07 02:55:26;;;;;;;5.50;3.60;;;;;;;28.36;33.91;101466.23;103567;1289;61199;-77
2023/09/07 02:57:51;;;;;;;6.50;4.20;;;;;;;28.36;34.14;101463.30;103485;1288;60607;-77
2023/09/07 03:00:17;;;;;;;6.40;4.10;;;;;;;28.37;33.99;101463.42;103449;1297;60977;-77
2023/09/07 03:02:48;;;;;;;6.10;3.80;;;;;;;28.37;34.04;101466.70;103636;1291;60574;-77
2023/09/07 03:05:17;;;;;;;6.10;3.60;;;;;;;28.36;33.98;101466.23;103285;1293;390867;-77
2023/09/07 03:07:45;;;;;;;6.80;3.50;;;;;;;28.35;33.96;101462.64;103329;1289;61064;-77
2023/09/07 03:10:10;;;;;;;6.10;3.80;;;;;;;28.35;34.16;101464.66;103500;1289;63827;-77
2023/09/07 03:12:36;;;;;;;6.00;3.70;;;;;;;28.35;33.92;101464.48;103470;1289;60581;-77
2023/09/07 03:15:03;;;;;;;6.20;3.90;;;;;;;28.35;34.20;101465.04;103443;1289;60609;-77
2023/09/07 03:17:29;;;;;;;5.70;3.80;;;;;;;28.35;34.03;101463.60;103646;1289;60590;-77
2023/09/07 03:19:55;;;;;;;6.40;3.70;;;;;;;28.35;34.14;101462.91;103600;1289;60454;-77
2023/09/07 03:22:21;;;;;;;5.90;3.90;;;;;;;28.35;34.08;101463.77;103620;1289;60664;-77
2023/09/07 03:24:47;;;;;;;6.00;3.90;;;;;;;28.35;33.95;101468.51;103392;1296;60670;-77
2023/09/07 03:27:13;;;;;;;5.60;3.90;;;;;;;28.34;34.20;101465.45;103587;1289;60521;-77
2023/09/07 03:29:39;;;;;;;5.00;3.50;;;;;;;28.34;34.21;101470.52;103632;1289;60610;-77
2023/09/07 03:32:06;;;;;;;5.90;3.70;;;;;;;28.34;34.09;101469.96;103441;1291;60492;-77
2023/09/07 03:34:31;;;;;;;5.70;3.80;;;;;;;28.34;34.00;101467.14;103583;1289;64913;-77
2023/09/07 03:36:58;;;;;;;6.10;3.70;;;;;;;28.34;34.28;101471.28;103448;1290;60643;-77
2023/09/07 03:39:23;;;;;;;6.10;3.70;;;;;;;28.35;34.20;101471.40;103500;1294;60660;-77
2023/09/07 03:41:49;;;;;;;5.40;3.60;;;;;;;28.34;34.07;101472.38;103636;1289;60564;-77
2023/09/07 03:44:15;;;;;;;5.40;3.70;;;;;;;28.34;34.04;101472.74;103642;1289;60591;-77
2023/09/07 03:46:41;;;;;;;6.70;3.90;;;;;;;28.34;33.94;101472.95;103662;1289;61455;-77
2023/09/07 03:49:06;;;;;;;6.10;3.70;;;;;;;28.34;33.93;101474.20;103571;1289;60504;-77
2023/09/07 03:51:32;;;;;;;5.50;3.80;;;;;;;28.34;34.11;101475.66;103446;1292;60565;-78
2023/09/07 03:53:59;;;;;;;5.10;3.40;;;;;;;28.34;34.11;101478.91;103419;1289;60595;-78
2023/09/07 03:56:25;;;;;;;5.50;3.70;;;;;;;28.33;34.05;101484.17;103376;1289;60552;-77
2023/09/07 03:58:50;;;;;;;5.50;3.70;;;;;;;28.33;34.16;101485.83;103316;1289;60587;-77
2023/09/07 04:01:16;;;;;;;5.90;3.60;;;;;;;28.33;34.01;101485.11;103564;1294;60568;-77
2023/09/07 04:03:42;;;;;;;4.80;3.20;;;;;;;28.33;33.86;101487.36;103657;1294;60578;-77
2023/09/07 04:06:07;;;;;;;5.30;3.50;;;;;;;28.32;33.88;101487.04;103354;1292;61781;-77
2023/09/07 04:08:33;;;;;;;6.40;3.40;;;;;;;28.32;33.80;101492.33;103414;1291;60726;-77
2023/09/07 04:11:03;;;;;;;5.00;3.40;;;;;;;28.31;33.74;101494.20;103468;1292;60505;-77
2023/09/07 04:13:29;;;;;;;4.70;3.30;;;;;;;28.30;33.78;101496.60;103315;1292;60505;-77
2023/09/07 04:15:55;;;;;;;6.00;3.60;;;;;;;28.30;33.53;101493.73;103399;1292;60598;-77
2023/09/07 04:18:21;;;;;;;5.40;3.60;;;;;;;28.29;33.29;101496.51;103377;1291;60670;-78
2023/09/07 04:20:48;;;;;;;6.80;3.70;;;;;;;28.28;33.41;101499.54;103359;1290;60590;-77
2023/09/07 04:23:14;;;;;;;5.30;3.50;;;;;;;28.29;33.46;101499.67;103552;1291;60571;-77
2023/09/07 04:25:39;;;;;;;5.70;3.70;;;;;;;28.28;33.29;101498.10;103391;1289;60549;-77
2023/09/07 04:28:06;;;;;;;6.10;3.90;;;;;;;28.27;32.97;101498.18;103541;1289;60620;-77
2023/09/07 04:30:40;;;;;;;7.50;4.30;;;;;;;28.27;32.85;101497.98;103626;1289;60581;-77
2023/09/07 04:33:05;;;;;;;5.90;3.70;;;;;;;28.26;32.77;101504.40;103545;1289;60454;-77
2023/09/07 04:35:33;;;;;;;6.60;3.60;;;;;;;28.26;32.70;101505.83;103567;1289;60583;-77
2023/09/07 04:37:58;;;;;;;5.60;3.70;;;;;;;28.26;32.63;101504.63;103590;1294;60477;-77
2023/09/07 04:40:24;;;;;;;9.00;3.90;;;;;;;28.25;32.35;101506.46;103612;1294;60570;-77
2023/09/07 04:42:50;;;;;;;7.70;4.00;;;;;;;28.24;32.17;101508.88;103605;1289;60506;-77
2023/09/07 04:45:15;;;;;;;7.40;4.00;;;;;;;28.24;32.03;101509.45;103609;1289;60459;-77
2023/09/07 04:47:43;;;;;;;5.30;3.50;;;;;;;28.24;32.15;101511.43;103473;1289;60541;-77
2023/09/07 04:50:10;;;;;;;6.90;3.90;;;;;;;28.23;31.95;101510.08;103576;1289;60459;-77
2023/09/07 04:52:36;;;;;;;7.80;4.40;;;;;;;28.23;31.81;101511.88;103642;1289;60574;-77
2023/09/07 04:55:02;;;;;;;7.50;4.10;;;;;;;28.22;31.98;101514.84;103572;1289;60521;-77
2023/09/07 04:57:28;;;;;;;7.50;4.30;;;;;;;28.22;32.03;101516.86;103468;1289;60479;-77
2023/09/07 04:59:54;;;;;;;6.40;4.10;;;;;;;28.22;31.96;101521.41;103423;1295;60626;-77
2023/09/07 05:02:20;;;;;;;8.10;4.20;;;;;;;28.22;31.84;101521.92;103805;1289;61883;-78
2023/09/07 05:04:45;;;;;;;5.80;3.90;;;;;;;28.22;31.84;101524.27;103595;1295;60562;-78
2023/09/07 05:07:11;;;;;;;5.00;3.70;;;;;;;28.22;31.64;101525.23;103810;1293;60610;-77
2023/09/07 05:09:36;;;;;;;7.00;4.00;;;;;;;28.22;31.65;101527.60;103574;1289;60507;-77
2023/09/07 05:12:02;;;;;;;6.70;4.10;;;;;;;28.21;31.56;101529.96;103788;1289;60623;-78
2023/09/07 05:14:29;;;;;;;7.90;4.20;;;;;;;28.21;31.24;101530.92;103482;1289;60834;-78
2023/09/07 05:16:56;;;;;;;8.40;4.10;;;;;;;28.22;31.48;101530.30;103643;1289;60571;-78
2023/09/07 05:19:22;;;;;;;8.70;4.50;;;;;;;28.22;31.22;101527.39;103812;1289;60576;-78
2023/09/07 05:21:48;;;;;;;6.30;3.80;;;;;;;28.21;31.15;101528.51;103672;1289;60587;-78
2023/09/07 05:24:15;;;;;;;8.40;4.00;;;;;;;28.21;31.08;101534.14;103780;1289;60789;-78
2023/09/07 05:26:41;;;;;;;6.00;3.60;;;;;;;28.20;31.24;101537.71;103686;1289;60456;-77
2023/09/07 05:29:07;;;;;;;9.20;3.90;;;;;;;28.19;31.48;101540.88;103508;1289;60482;-79
2023/09/07 05:31:33;;;;;;;8.60;3.60;;;;;;;28.19;31.41;101544.15;103664;1289;60591;-78
2023/09/07 05:33:58;;;;;;;8.80;4.20;;;;;;;28.18;31.29;101546.39;103711;1288;60460;-78
2023/09/07 05:36:24;;;;;;;5.70;4.30;;;;;;;28.18;31.11;101548.36;104252;1289;60437;-81
2023/09/07 05:38:50;;;;;;;6.30;4.20;;;;;;;28.19;31.01;101545.99;104176;1293;59289;-78
2023/09/07 05:41:15;;;;;;;7.30;4.20;;;;;;;28.19;30.89;101549.80;104038;1294;60734;-78
2023/09/07 05:43:41;;;;;;;10.20;4.60;;;;;;;28.16;30.96;101547.84;103985;1289;60597;-78
2023/09/07 05:46:08;;;;;;;11.30;4.40;;;;;;;28.15;30.82;101548.48;104111;1289;59381;-79
2023/09/07 05:48:34;;;;;;;7.20;3.80;;;;;;;28.14;30.63;101553.45;104075;1292;60614;-78
2023/09/07 05:51:00;;;;;;;7.60;4.30;;;;;;;28.13;30.86;101554.83;104296;1289;60577;-80
2023/09/07 05:53:27;;;;;;;8.90;4.60;;;;;;;28.11;30.70;101554.96;104360;1289;60680;-79
2023/09/07 05:55:52;;;;;;;9.80;4.00;;;;;;;28.09;30.41;101553.70;104229;1294;60357;-78
2023/09/07 05:58:19;;;;;;;10.10;4.30;;;;;;;28.06;30.45;101555.03;104102;1289;60553;-81
2023/09/07 06:00:44;;;;;;;9.80;4.20;;;;;;;28.06;30.56;101557.64;104243;1289;62248;-79
2023/09/07 06:03:10;;;;;;;9.90;4.00;;;;;;;28.07;30.33;101559.33;104415;1289;60550;-79
2023/09/07 06:05:38;;;;;;;10.80;3.90;;;;;;;28.09;30.33;101561.54;104452;1289;60529;-81
2023/09/07 06:08:06;;;;;;;11.00;4.30;;;;;;;28.10;30.20;101560.20;104410;1289;60584;-79
2023/09/07 06:10:31;;;;;;;10.70;4.10;;;;;;;28.10;30.08;101560.73;104387;1289;60562;-79
2023/09/07 06:12:57;;;;;;;11.50;3.80;;;;;;;28.10;30.24;101565.91;104384;1289;60569;-79
2023/09/07 06:15:23;;;;;;;14.20;4.30;;;;;;;28.10;30.28;101565.39;104627;1289;60561;-79
2023/09/07 06:17:50;;;;;;;12.10;4.00;;;;;;;28.11;30.39;101562.80;104779;1289;60459;-81
2023/09/07 06:20:16;;;;;;;12.50;4.30;;;;;;;28.10;30.18;101568.64;104538;1289;60570;-80
2023/09/07 06:22:41;;;;;;;11.10;4.20;;;;;;;28.09;30.07;101566.91;104610;1289;61720;-80
2023/09/07 06:25:07;;;;;;;7.70;3.90;;;;;;;28.08;30.18;101570.98;104515;1289;60474;-81
2023/09/07 06:27:33;;;;;;;14.90;4.70;;;;;;;28.07;30.26;101573.77;104434;1289;60474;-81
2023/09/07 06:30:01;;;;;;;11.60;4.30;;;;;;;28.07;30.27;101571.46;104772;1289;60595;-83
2023/09/07 06:32:26;;;;;;;10.10;3.80;;;;;;;28.07;30.28;101573.64;105570;1289;63860;-84
2023/09/07 06:34:52;;;;;;;13.30;4.30;;;;;;;28.07;30.18;101574.88;105894;1289;60565;-82
2023/09/07 06:37:19;;;;;;;14.30;4.20;;;;;;;28.07;30.30;101577.94;105682;1289;60436;-83
2023/09/07 06:39:44;;;;;;;14.10;4.70;;;;;;;28.07;30.42;101582.32;105958;1289;58762;-83
2023/09/07 06:42:12;;;;;;;18.20;4.30;;;;;;;28.07;30.25;101588.77;105985;1289;58585;-83
2023/09/07 06:44:39;;;;;;;13.60;4.30;;;;;;;28.07;30.41;101589.59;105964;1289;60930;-83
2023/09/07 06:47:05;;;;;;;14.50;4.60;;;;;;;28.08;30.42;101591.08;105972;1289;60674;-83
2023/09/07 06:49:31;;;;;;;11.60;4.10;;;;;;;28.10;30.36;101591.62;105837;1289;58464;-83
2023/09/07 06:51:56;;;;;;;12.00;4.80;;;;;;;28.09;30.36;101589.55;106016;1288;59280;-83
2023/09/07 06:54:22;;;;;;;10.60;4.30;;;;;;;28.11;30.70;101586.16;105798;1289;59320;-84
2023/09/07 06:56:48;;;;;;;11.90;4.30;;;;;;;28.12;30.59;101588.25;106088;1289;60409;-83
2023/09/07 06:59:14;;;;;;;10.70;4.10;;;;;;;28.12;30.64;101590.95;106146;1289;58006;-84
2023/09/07 07:01:40;;;;;;;10.90;4.40;;;;;;;28.13;30.39;101592.43;106355;1289;58054;-85
2023/09/07 07:04:07;;;;;;;15.70;4.80;;;;;;;28.15;30.37;101590.49;106204;1295;58498;-85
2023/09/07 07:06:35;;;;;;;11.60;4.80;;;;;;;28.15;30.45;101591.16;106260;1289;58331;-87
2023/09/07 07:09:03;;;;;;;16.60;4.70;;;;;;;28.17;30.30;101590.88;105915;1289;59282;-87
2023/09/07 07:11:29;;;;;;;22.00;4.40;;;;;;;28.17;30.38;101589.55;104537;1289;60398;-84
2023/09/07 07:13:56;;;;;;;13.10;4.50;;;;;;;28.18;30.25;101586.99;104878;1291;60576;-85
2023/09/07 07:16:22;;;;;;;29.10;5.30;;;;;;;28.18;30.18;101588.08;104520;1288;60581;-83
2023/09/07 07:18:47;;;;;;;15.00;4.60;;;;;;;28.17;30.44;101590.14;104859;1289;60591;-83
2023/09/07 07:21:13;;;;;;;12.60;4.50;;;;;;;28.14;30.11;101590.95;104821;1289;60672;-83
2023/09/07 07:23:38;;;;;;;13.20;4.30;;;;;;;28.09;30.28;101587.52;104976;1289;60485;-82
2023/09/07 07:26:05;;;;;;;12.90;4.20;;;;;;;28.06;30.16;101592.87;104905;1289;58369;-84
2023/09/07 07:28:31;;;;;;;10.30;4.60;;;;;;;28.05;30.30;101590.13;105010;1289;65126;-82
2023/09/07 07:30:57;;;;;;;10.70;4.00;;;;;;;28.02;30.10;101587.80;105027;1289;59269;-83
2023/09/07 07:33:23;;;;;;;11.40;4.40;;;;;;;28.01;30.16;101590.59;104984;1289;59403;-83
2023/09/07 07:35:48;;;;;;;8.20;4.30;;;;;;;28.03;30.26;101587.39;105010;1289;60562;-83
2023/09/07 07:38:14;;;;;;;7.70;4.10;;;;;;;28.04;29.98;101587.25;105150;1289;61036;-83
2023/09/07 07:40:42;;;;;;;9.60;4.10;;;;;;;28.03;30.03;101586.45;104962;1288;60567;-83
2023/09/07 07:43:09;;;;;;;10.90;4.20;;;;;;;28.02;29.93;101584.50;105119;1289;60427;-83
2023/09/07 07:45:37;;;;;;;9.20;4.10;;;;;;;28.02;29.96;101581.65;105130;1288;60418;-83
2023/09/07 07:48:05;;;;;;;20.30;4.30;;;;;;;28.02;29.78;101582.07;105047;1288;63942;-84
2023/09/07 07:50:31;;;;;;;14.00;4.30;;;;;;;28.00;29.91;101579.50;104958;1289;64830;-83
2023/09/07 07:52:57;;;;;;;12.10;4.30;;;;;;;27.97;29.84;101574.45;104938;1289;60521;-84
2023/09/07 07:55:23;;;;;;;9.50;4.20;;;;;;;27.96;29.89;101575.45;105280;1289;59368;-83
2023/09/07 07:57:49;;;;;;;11.10;4.40;;;;;;;27.94;29.75;101572.19;105130;1291;60535;-83
2023/09/07 08:00:14;;;;;;;12.10;4.20;;;;;;;27.94;29.91;101573.67;105132;1289;60531;-83
2023/09/07 08:02:40;;;;;;;11.50;3.80;;;;;;;27.94;29.73;101575.30;105211;1289;59287;-84
2023/09/07 08:05:06;;;;;;;7.80;4.30;;;;;;;27.96;29.59;101573.85;105429;1288;60456;-84
2023/09/07 08:07:33;;;;;;;10.80;4.50;;;;;;;27.98;29.48;101570.75;105351;1290;59232;-83
2023/09/07 08:09:58;;;;;;;10.80;4.40;;;;;;;27.98;29.60;101570.95;105178;1289;59397;-84
2023/09/07 08:12:24;;;;;;;8.20;4.00;;;;;;;27.97;29.32;101569.63;105239;1289;65969;-83
2023/09/07 08:14:49;;;;;;;9.80;4.00;;;;;;;27.95;29.28;101567.83;105233;1289;60562;-84
2023/09/07 08:17:15;;;;;;;10.10;3.70;;;;;;;27.94;29.16;101561.73;105029;1289;60655;-84
2023/09/07 08:19:41;;;;;;;7.20;3.80;;;;;;;27.93;29.35;101557.83;105173;1289;60443;-85
2023/09/07 08:22:08;;;;;;;8.70;4.20;;;;;;;27.92;29.36;101553.93;104906;1289;59452;-83
2023/09/07 08:24:34;;;;;;;7.70;3.90;;;;;;;27.92;29.38;101561.67;104999;1289;64971;-84
2023/09/07 08:27:00;;;;;;;12.90;4.00;;;;;;;27.93;29.46;101565.18;105195;1289;58415;-84
2023/09/07 08:29:27;;;;;;;7.10;4.30;;;;;;;27.93;29.29;101564.84;105011;1289;60582;-85
2023/09/07 08:31:53;;;;;;;7.30;3.80;;;;;;;27.93;29.31;101567.02;105110;1289;60502;-84
2023/09/07 08:34:20;;;;;;;11.30;4.00;;;;;;;27.93;29.19;101564.90;105406;1289;60325;-84
2023/09/07 08:36:46;;;;;;;15.10;4.60;;;;;;;27.92;29.18;101562.81;105185;1289;60667;-85
2023/09/07 08:39:13;;;;;;;7.00;3.80;;;;;;;27.91;29.19;101561.27;105156;1294;61874;-85
2023/09/07 08:41:43;;;;;;;7.50;4.10;;;;;;;27.91;29.04;101565.08;105185;1288;60316;-85
2023/09/07 08:44:17;;;;;;;8.40;3.90;;;;;;;27.90;29.12;101564.77;105149;1289;73693;-85
2023/09/07 08:46:43;;;;;;;15.90;4.10;;;;;;;27.88;28.91;101563.89;104868;1289;60421;-84
2023/09/07 08:49:09;;;;;;;8.30;3.80;;;;;;;27.85;28.50;101561.64;104785;1294;60469;-84
2023/09/07 08:51:37;;;;;;;7.50;3.90;;;;;;;27.85;28.61;101563.63;104769;1294;60548;-84
2023/09/07 08:54:04;;;;;;;9.90;3.80;;;;;;;27.84;28.52;101560.06;104813;1289;65065;-85
2023/09/07 08:56:29;;;;;;;8.00;4.00;;;;;;;27.84;28.53;101559.70;105070;1289;60652;-85
2023/09/07 08:58:56;;;;;;;8.00;3.60;;;;;;;27.82;28.53;101553.52;105260;1288;60571;-84
2023/09/07 09:01:22;;;;;;;8.50;4.10;;;;;;;27.81;28.56;101549.49;105365;1289;60451;-85
2023/09/07 09:03:48;;;;;;;9.00;4.70;;;;;;;27.82;28.24;101548.32;105288;1289;60488;-85
2023/09/07 09:06:14;;;;;;;8.30;4.60;;;;;;;27.83;28.29;101544.23;105320;1289;58423;-85
2023/09/07 09:08:43;;;;;;;6.10;3.90;;;;;;;27.84;28.27;101547.23;105257;1289;60671;-85
2023/09/07 09:11:09;;;;;;;9.20;4.10;;;;;;;27.85;28.38;101547.36;105309;1289;63727;-85
2023/09/07 09:13:34;;;;;;;6.40;3.90;;;;;;;27.85;28.40;101538.63;105063;1289;60258;-84
2023/09/07 09:16:02;;;;;;;11.40;4.50;;;;;;;27.88;28.36;101538.02;105163;1289;59155;-85
2023/09/07 09:18:29;;;;;;;11.70;4.40;;;;;;;27.92;28.37;101540.19;105312;1293;60454;-85
2023/09/07 09:20:55;;;;;;;7.20;4.10;;;;;;;27.97;28.38;101535.98;105351;1289;60443;-85
2023/09/07 09:23:21;;;;;;;9.60;3.80;;;;;;;27.98;28.26;101527.77;105216;1289;60550;-85
2023/09/07 09:25:51;;;;;;;7.20;3.90;;;;;;;27.97;28.23;101525.86;105223;1289;60581;-84
2023/09/07 09:28:17;;;;;;;9.00;3.80;;;;;;;27.96;28.29;101521.08;104866;1289;60482;-84
2023/09/07 09:30:45;;;;;;;10.10;3.80;;;;;;;27.95;28.08;101514.21;104765;1289;60485;-84
2023/09/07 09:33:11;;;;;;;12.10;4.00;;;;;;;27.96;28.10;101520.80;104770;1289;65059;-84
2023/09/07 09:35:38;;;;;;;8.70;3.80;;;;;;;27.98;28.13;101511.30;104663;1291;60380;-84
2023/09/07 09:38:04;;;;;;;10.50;4.20;;;;;;;27.98;28.04;101508.58;104763;1289;60460;-84
2023/09/07 09:40:34;;;;;;;6.50;3.80;;;;;;;27.97;28.26;101511.88;104686;1289;60594;-84
2023/09/07 09:43:00;;;;;;;7.60;4.10;;;;;;;27.98;28.10;101503.88;104895;1289;64865;-84
2023/09/07 09:45:26;;;;;;;12.00;4.60;;;;;;;27.99;28.23;101504.12;104917;1289;60584;-84
2023/09/07 09:47:52;;;;;;;8.00;4.00;;;;;;;28.02;28.16;101501.71;104799;1289;61314;-84
2023/09/07 09:50:18;;;;;;;10.20;4.50;;;;;;;28.04;28.20;101502.04;104601;1289;60651;-85
2023/09/07 09:52:43;;;;;;;7.00;4.20;;;;;;;28.07;28.32;101495.45;104606;1289;60555;-84
2023/09/07 09:55:12;;;;;;;9.20;3.90;;;;;;;28.09;28.31;101487.11;104542;1289;59253;-84
2023/09/07 09:57:38;;;;;;;9.60;4.40;;;;;;;28.12;28.30;101480.75;104624;1289;60470;-84
2023/09/07 10:02:44;;;;;;;10.80;4.80;;;;;;;28.14;28.39;101480.73;104648;1291;64916;-84
2023/09/07 10:05:11;;;;;;;10.00;4.60;;;;;;;28.14;28.49;101483.64;104539;1289;60619;-84
2023/09/07 10:07:44;;;;;;;10.80;4.60;;;;;;;28.14;28.41;101487.43;104779;1289;59442;-85
2023/09/07 10:10:14;;;;;;;13.40;4.10;;;;;;;28.12;28.39;101485.77;104909;1292;63781;-84
2023/09/07 10:12:56;;;;;;;6.00;3.90;;;;;;;28.11;28.16;101486.27;104706;1289;65012;-84
2023/09/07 10:15:22;;;;;;;9.70;4.20;;;;;;;28.11;28.33;101484.77;104633;1289;60502;-84
2023/09/07 10:17:50;;;;;;;9.10;4.00;;;;;;;28.12;28.30;101490.65;104705;1289;60446;-84
2023/09/07 10:20:17;;;;;;;10.50;4.10;;;;;;;28.14;28.17;101487.04;104755;1289;63915;-84
2023/09/07 10:22:43;;;;;;;8.50;3.80;;;;;;;28.13;28.23;101487.34;104715;1289;64991;-84
2023/09/07 10:25:20;;;;;;;13.30;4.20;;;;;;;28.13;28.19;101484.83;104665;1289;60890;-84
2023/09/07 10:27:47;;;;;;;12.10;4.10;;;;;;;28.13;28.31;101484.80;104594;1291;60441;-84
2023/09/07 10:30:23;;;;;;;8.80;4.60;;;;;;;28.12;28.12;101482.34;104662;1289;65617;-83
2023/09/07 10:32:57;;;;;;;9.70;5.20;;;;;;;28.13;28.02;101484.27;104598;1292;64933;-84
2023/09/07 10:35:25;;;;;;;8.40;4.60;;;;;;;28.14;28.10;101481.43;104639;1289;60597;-84
2023/09/07 10:37:51;;;;;;;11.80;4.60;;;;;;;28.16;28.06;101481.84;104648;1289;60450;-84
2023/09/07 10:40:23;;;;;;;6.60;4.10;;;;;;;28.15;28.09;101471.06;104806;1291;60577;-84
2023/09/07 10:42:49;;;;;;;6.50;3.90;;;;;;;28.14;28.21;101475.45;104663;1289;65155;-84
2023/09/07 10:45:16;;;;;;;9.60;4.00;;;;;;;28.15;28.02;101476.78;104717;1289;60507;-84
2023/09/07 10:47:43;;;;;;;8.10;4.10;;;;;;;28.16;28.10;101470.72;104826;1289;60526;-84
2023/09/07 10:50:13;;;;;;;10.40;4.10;;;;;;;28.18;28.09;101464.27;104844;1289;63849;-84
2023/09/07 10:52:42;;;;;;;6.90;3.80;;;;;;;28.19;28.43;101465.59;104597;1289;65061;-84
2023/09/07 10:55:11;;;;;;;9.10;4.10;;;;;;;28.20;28.60;101466.39;104715;1289;60600;-84
2023/09/07 10:57:46;;;;;;;;;;;;;;;28.22;28.66;101466.19;104636;1290;60691;-84
2023/09/07 11:00:13;;;;;;;7.90;4.00;;;;;;;28.22;28.60;101462.55;104705;1288;63928;-84
2023/09/07 11:02:41;;;;;;;6.00;3.80;;;;;;;28.25;28.85;101458.36;104707;1290;64992;-84
2023/09/07 11:05:07;;;;;;;7.10;4.00;;;;;;;28.26;28.77;101458.05;104783;1289;60673;-84
2023/09/07 11:07:34;;;;;;;7.60;4.00;;;;;;;28.28;28.63;101456.79;104784;1289;60478;-84
2023/09/07 11:09:59;;;;;;;8.70;4.10;;;;;;;28.30;28.53;101458.47;104663;1296;60552;-84
2023/09/07 11:12:25;;;;;;;6.90;3.90;;;;;;;28.32;28.65;101460.47;104903;1289;60396;-85
2023/09/07 11:14:52;;;;;;;6.80;3.90;;;;;;;28.33;28.56;101457.42;104870;1289;60498;-85